sensor_id;sensor_type;location;lat;lon;timestamp;P1;durP1;ratioP1;P2;durP2;ratioP2
53022;SDS011;38913;44.338;11.206;2023-05-10T00:01:29;5.50;;;4.27;;
53022;SDS011;38913;44.338;11.206;2023-05-10T00:03:54;11.10;;;5.00;;
53022;SDS011;38913;44.338;11.206;2023-05-10T00:06:19;5.30;;;4.38;;
53022;SDS011;38913;44.338;11.206;2023-05-10T00:08:45;7.18;;;4.05;;
53022;SDS011;38913;44.338;11.206;2023-05-10T00:11:10;6.53;;;4.50;;
53022;SDS011;38913;44.338;11.206;2023-05-10T00:13:35;7.20;;;4.47;;
53022;SDS011;38913;44.338;11.206;2023-05-10T00:16:01;6.55;;;3.78;;
53022;SDS011;38913;44.338;11.206;2023-05-10T00:18:26;5.17;;;4.53;;
53022;SDS011;38913;44.338;11.206;2023-05-10T00:20:51;5.67;;;4.60;;
53022;SDS011;38913;44.338;11.206;2023-05-10T00:23:16;5.00;;;3.93;;
53022;SDS011;38913;44.338;11.206;2023-05-10T00:25:41;6.77;;;4.10;;
53022;SDS011;38913;44.338;11.206;2023-05-10T00:28:07;6.22;;;4.60;;
53022;SDS011;38913;44.338;11.206;2023-05-10T00:30:32;5.55;;;4.40;;
53022;SDS011;38913;44.338;11.206;2023-05-10T00:32:57;5.37;;;4.07;;
53022;SDS011;38913;44.338;11.206;2023-05-10T00:35:22;6.87;;;4.43;;
53022;SDS011;38913;44.338;11.206;2023-05-10T00:37:48;7.78;;;4.28;;
53022;SDS011;38913;44.338;11.206;2023-05-10T00:40:13;6.72;;;4.72;;
53022;SDS011;38913;44.338;11.206;2023-05-10T00:42:38;5.95;;;4.80;;
53022;SDS011;38913;44.338;11.206;2023-05-10T00:45:04;7.50;;;4.95;;
53022;SDS011;38913;44.338;11.206;2023-05-10T00:47:29;4.97;;;4.47;;
53022;SDS011;38913;44.338;11.206;2023-05-10T00:49:55;4.82;;;4.15;;
53022;SDS011;38913;44.338;11.206;2023-05-10T00:52:20;7.20;;;4.53;;
53022;SDS011;38913;44.338;11.206;2023-05-10T00:54:48;7.07;;;5.18;;
53022;SDS011;38913;44.338;11.206;2023-05-10T00:57:14;5.90;;;4.50;;
53022;SDS011;38913;44.338;11.206;2023-05-10T00:59:39;8.40;;;4.60;;
53022;SDS011;38913;44.338;11.206;2023-05-10T01:02:05;9.13;;;5.03;;
53022;SDS011;38913;44.338;11.206;2023-05-10T01:04:30;5.75;;;4.35;;
53022;SDS011;38913;44.338;11.206;2023-05-10T01:06:56;5.05;;;4.55;;
53022;SDS011;38913;44.338;11.206;2023-05-10T01:09:21;7.17;;;4.80;;
53022;SDS011;38913;44.338;11.206;2023-05-10T01:11:47;8.30;;;5.10;;
53022;SDS011;38913;44.338;11.206;2023-05-10T01:14:12;6.03;;;4.53;;
53022;SDS011;38913;44.338;11.206;2023-05-10T01:16:38;7.72;;;5.20;;
53022;SDS011;38913;44.338;11.206;2023-05-10T01:24:37;4.80;;;4.20;;
53022;SDS011;38913;44.338;11.206;2023-05-10T01:35:19;5.78;;;4.65;;
53022;SDS011;38913;44.338;11.206;2023-05-10T01:37:56;7.93;;;4.75;;
53022;SDS011;38913;44.338;11.206;2023-05-10T01:40:35;6.78;;;4.50;;
53022;SDS011;38913;44.338;11.206;2023-05-10T01:43:02;9.63;;;4.55;;
53022;SDS011;38913;44.338;11.206;2023-05-10T01:45:31;7.55;;;4.70;;
53022;SDS011;38913;44.338;11.206;2023-05-10T01:48:15;6.47;;;5.18;;
53022;SDS011;38913;44.338;11.206;2023-05-10T01:50:41;6.25;;;5.55;;
53022;SDS011;38913;44.338;11.206;2023-05-10T01:53:08;6.25;;;4.93;;
53022;SDS011;38913;44.338;11.206;2023-05-10T01:56:08;7.32;;;4.88;;
53022;SDS011;38913;44.338;11.206;2023-05-10T01:58:30;5.90;;;4.53;;
53022;SDS011;38913;44.338;11.206;2023-05-10T02:00:56;5.78;;;4.60;;
53022;SDS011;38913;44.338;11.206;2023-05-10T02:03:23;5.90;;;5.30;;
53022;SDS011;38913;44.338;11.206;2023-05-10T02:05:49;7.07;;;4.68;;
53022;SDS011;38913;44.338;11.206;2023-05-10T02:08:15;5.35;;;4.70;;
53022;SDS011;38913;44.338;11.206;2023-05-10T02:10:42;7.65;;;4.55;;
53022;SDS011;38913;44.338;11.206;2023-05-10T02:13:08;5.72;;;4.68;;
53022;SDS011;38913;44.338;11.206;2023-05-10T02:15:35;6.80;;;4.75;;
53022;SDS011;38913;44.338;11.206;2023-05-10T02:18:01;6.85;;;5.10;;
53022;SDS011;38913;44.338;11.206;2023-05-10T02:20:27;7.25;;;4.63;;
53022;SDS011;38913;44.338;11.206;2023-05-10T02:22:53;6.43;;;4.72;;
53022;SDS011;38913;44.338;11.206;2023-05-10T02:25:19;5.50;;;4.70;;
53022;SDS011;38913;44.338;11.206;2023-05-10T02:27:45;6.50;;;4.63;;
53022;SDS011;38913;44.338;11.206;2023-05-10T02:30:11;8.23;;;4.15;;
53022;SDS011;38913;44.338;11.206;2023-05-10T02:32:37;7.25;;;5.30;;
53022;SDS011;38913;44.338;11.206;2023-05-10T02:35:02;6.10;;;4.28;;
53022;SDS011;38913;44.338;11.206;2023-05-10T02:37:28;5.93;;;4.50;;
53022;SDS011;38913;44.338;11.206;2023-05-10T02:39:54;6.80;;;5.00;;
53022;SDS011;38913;44.338;11.206;2023-05-10T02:42:22;5.50;;;4.30;;
53022;SDS011;38913;44.338;11.206;2023-05-10T02:44:48;6.32;;;4.82;;
53022;SDS011;38913;44.338;11.206;2023-05-10T02:47:13;7.47;;;4.95;;
53022;SDS011;38913;44.338;11.206;2023-05-10T02:49:39;6.68;;;4.40;;
53022;SDS011;38913;44.338;11.206;2023-05-10T02:52:04;6.18;;;4.65;;
53022;SDS011;38913;44.338;11.206;2023-05-10T02:54:33;7.80;;;5.13;;
53022;SDS011;38913;44.338;11.206;2023-05-10T02:57:00;6.07;;;4.68;;
53022;SDS011;38913;44.338;11.206;2023-05-10T02:59:28;6.07;;;5.15;;
53022;SDS011;38913;44.338;11.206;2023-05-10T03:01:53;7.70;;;4.90;;
53022;SDS011;38913;44.338;11.206;2023-05-10T03:04:19;6.53;;;5.30;;
53022;SDS011;38913;44.338;11.206;2023-05-10T03:06:44;5.53;;;4.80;;
53022;SDS011;38913;44.338;11.206;2023-05-10T03:09:09;6.80;;;5.40;;
53022;SDS011;38913;44.338;11.206;2023-05-10T03:14:07;6.90;;;4.60;;
53022;SDS011;38913;44.338;11.206;2023-05-10T03:16:47;7.40;;;4.70;;
53022;SDS011;38913;44.338;11.206;2023-05-10T03:19:32;6.72;;;4.80;;
53022;SDS011;38913;44.338;11.206;2023-05-10T03:21:59;7.30;;;4.75;;
53022;SDS011;38913;44.338;11.206;2023-05-10T03:24:28;7.30;;;5.07;;
53022;SDS011;38913;44.338;11.206;2023-05-10T03:26:55;7.55;;;5.78;;
53022;SDS011;38913;44.338;11.206;2023-05-10T03:29:22;7.38;;;5.40;;
53022;SDS011;38913;44.338;11.206;2023-05-10T03:31:47;6.95;;;5.07;;
53022;SDS011;38913;44.338;11.206;2023-05-10T03:34:12;6.63;;;4.97;;
53022;SDS011;38913;44.338;11.206;2023-05-10T03:36:38;6.70;;;5.30;;
53022;SDS011;38913;44.338;11.206;2023-05-10T03:39:03;8.55;;;5.00;;
53022;SDS011;38913;44.338;11.206;2023-05-10T03:41:28;8.00;;;5.20;;
53022;SDS011;38913;44.338;11.206;2023-05-10T03:43:54;8.13;;;5.25;;
53022;SDS011;38913;44.338;11.206;2023-05-10T03:46:19;6.85;;;5.10;;
53022;SDS011;38913;44.338;11.206;2023-05-10T03:48:44;7.63;;;5.10;;
53022;SDS011;38913;44.338;11.206;2023-05-10T03:51:10;10.98;;;5.40;;
53022;SDS011;38913;44.338;11.206;2023-05-10T03:53:35;7.78;;;5.50;;
53022;SDS011;38913;44.338;11.206;2023-05-10T03:56:00;7.10;;;5.65;;
53022;SDS011;38913;44.338;11.206;2023-05-10T03:58:26;7.78;;;5.20;;
53022;SDS011;38913;44.338;11.206;2023-05-10T04:00:51;6.15;;;4.68;;
53022;SDS011;38913;44.338;11.206;2023-05-10T04:03:16;6.25;;;5.03;;
53022;SDS011;38913;44.338;11.206;2023-05-10T04:05:42;6.00;;;4.95;;
53022;SDS011;38913;44.338;11.206;2023-05-10T04:08:07;6.80;;;4.80;;
53022;SDS011;38913;44.338;11.206;2023-05-10T04:10:33;7.85;;;5.15;;
53022;SDS011;38913;44.338;11.206;2023-05-10T04:12:58;6.28;;;5.13;;
53022;SDS011;38913;44.338;11.206;2023-05-10T04:15:23;8.60;;;5.50;;
53022;SDS011;38913;44.338;11.206;2023-05-10T04:17:49;5.70;;;4.97;;
53022;SDS011;38913;44.338;11.206;2023-05-10T04:20:15;6.55;;;5.20;;
53022;SDS011;38913;44.338;11.206;2023-05-10T04:22:40;6.82;;;5.15;;
53022;SDS011;38913;44.338;11.206;2023-05-10T04:25:06;6.67;;;5.07;;
53022;SDS011;38913;44.338;11.206;2023-05-10T04:27:31;7.15;;;4.95;;
53022;SDS011;38913;44.338;11.206;2023-05-10T04:29:57;6.37;;;5.10;;
53022;SDS011;38913;44.338;11.206;2023-05-10T04:32:22;5.80;;;4.63;;
53022;SDS011;38913;44.338;11.206;2023-05-10T04:34:47;6.05;;;4.70;;
53022;SDS011;38913;44.338;11.206;2023-05-10T04:37:12;6.60;;;5.07;;
53022;SDS011;38913;44.338;11.206;2023-05-10T04:39:38;8.87;;;5.33;;
53022;SDS011;38913;44.338;11.206;2023-05-10T04:42:03;5.67;;;4.53;;
53022;SDS011;38913;44.338;11.206;2023-05-10T04:44:30;11.35;;;5.30;;
53022;SDS011;38913;44.338;11.206;2023-05-10T04:46:55;5.70;;;4.70;;
53022;SDS011;38913;44.338;11.206;2023-05-10T04:49:20;7.30;;;4.80;;
53022;SDS011;38913;44.338;11.206;2023-05-10T04:51:46;7.80;;;5.20;;
53022;SDS011;38913;44.338;11.206;2023-05-10T04:54:11;8.25;;;4.85;;
53022;SDS011;38913;44.338;11.206;2023-05-10T04:56:37;6.40;;;5.03;;
53022;SDS011;38913;44.338;11.206;2023-05-10T04:59:02;8.00;;;5.33;;
53022;SDS011;38913;44.338;11.206;2023-05-10T05:01:28;8.65;;;6.60;;
53022;SDS011;38913;44.338;11.206;2023-05-10T05:03:53;8.23;;;5.80;;
53022;SDS011;38913;44.338;11.206;2023-05-10T05:06:18;6.93;;;5.65;;
53022;SDS011;38913;44.338;11.206;2023-05-10T05:08:44;7.78;;;5.80;;
53022;SDS011;38913;44.338;11.206;2023-05-10T05:11:10;7.47;;;5.60;;
53022;SDS011;38913;44.338;11.206;2023-05-10T05:13:35;6.73;;;5.17;;
53022;SDS011;38913;44.338;11.206;2023-05-10T05:16:03;11.03;;;6.73;;
53022;SDS011;38913;44.338;11.206;2023-05-10T05:18:29;9.68;;;7.07;;
53022;SDS011;38913;44.338;11.206;2023-05-10T05:20:54;9.45;;;8.02;;
53022;SDS011;38913;44.338;11.206;2023-05-10T05:23:20;11.57;;;8.20;;
53022;SDS011;38913;44.338;11.206;2023-05-10T05:25:49;10.35;;;8.35;;
53022;SDS011;38913;44.338;11.206;2023-05-10T05:28:15;8.85;;;7.50;;
53022;SDS011;38913;44.338;11.206;2023-05-10T05:30:40;7.40;;;5.93;;
53022;SDS011;38913;44.338;11.206;2023-05-10T05:33:05;8.00;;;5.70;;
53022;SDS011;38913;44.338;11.206;2023-05-10T05:35:31;6.22;;;4.80;;
53022;SDS011;38913;44.338;11.206;2023-05-10T05:37:57;5.70;;;4.30;;
53022;SDS011;38913;44.338;11.206;2023-05-10T05:40:22;5.47;;;4.30;;
53022;SDS011;38913;44.338;11.206;2023-05-10T05:42:47;5.35;;;4.10;;
53022;SDS011;38913;44.338;11.206;2023-05-10T05:45:13;5.07;;;4.00;;
53022;SDS011;38913;44.338;11.206;2023-05-10T05:47:40;3.83;;;3.42;;
53022;SDS011;38913;44.338;11.206;2023-05-10T05:50:06;4.43;;;3.80;;
53022;SDS011;38913;44.338;11.206;2023-05-10T05:52:31;5.75;;;4.03;;
53022;SDS011;38913;44.338;11.206;2023-05-10T05:54:57;6.40;;;4.47;;
53022;SDS011;38913;44.338;11.206;2023-05-10T05:57:22;4.70;;;3.80;;
53022;SDS011;38913;44.338;11.206;2023-05-10T05:59:48;4.93;;;3.67;;
53022;SDS011;38913;44.338;11.206;2023-05-10T06:02:13;4.53;;;4.00;;
53022;SDS011;38913;44.338;11.206;2023-05-10T06:04:38;5.20;;;4.60;;
53022;SDS011;38913;44.338;11.206;2023-05-10T06:07:03;4.70;;;3.73;;
53022;SDS011;38913;44.338;11.206;2023-05-10T06:09:28;5.33;;;4.23;;
53022;SDS011;38913;44.338;11.206;2023-05-10T06:11:54;5.90;;;4.85;;
53022;SDS011;38913;44.338;11.206;2023-05-10T06:14:22;7.23;;;4.57;;
53022;SDS011;38913;44.338;11.206;2023-05-10T06:16:47;6.07;;;4.55;;
53022;SDS011;38913;44.338;11.206;2023-05-10T06:19:12;5.30;;;4.10;;
53022;SDS011;38913;44.338;11.206;2023-05-10T06:21:38;5.03;;;4.20;;
53022;SDS011;38913;44.338;11.206;2023-05-10T06:24:03;5.13;;;4.27;;
53022;SDS011;38913;44.338;11.206;2023-05-10T06:26:28;5.10;;;3.60;;
53022;SDS011;38913;44.338;11.206;2023-05-10T06:28:53;5.20;;;4.10;;
53022;SDS011;38913;44.338;11.206;2023-05-10T06:31:19;4.82;;;3.97;;
53022;SDS011;38913;44.338;11.206;2023-05-10T06:33:44;5.65;;;4.30;;
53022;SDS011;38913;44.338;11.206;2023-05-10T06:36:09;7.30;;;4.30;;
53022;SDS011;38913;44.338;11.206;2023-05-10T06:38:34;5.43;;;4.07;;
53022;SDS011;38913;44.338;11.206;2023-05-10T06:41:00;4.50;;;4.07;;
53022;SDS011;38913;44.338;11.206;2023-05-10T06:43:25;6.13;;;4.40;;
53022;SDS011;38913;44.338;11.206;2023-05-10T06:45:51;4.53;;;4.10;;
53022;SDS011;38913;44.338;11.206;2023-05-10T06:48:16;4.38;;;3.78;;
53022;SDS011;38913;44.338;11.206;2023-05-10T06:50:41;7.33;;;4.47;;
53022;SDS011;38913;44.338;11.206;2023-05-10T06:53:07;6.03;;;3.73;;
53022;SDS011;38913;44.338;11.206;2023-05-10T06:55:32;4.70;;;3.77;;
53022;SDS011;38913;44.338;11.206;2023-05-10T06:57:57;5.13;;;3.73;;
53022;SDS011;38913;44.338;11.206;2023-05-10T07:00:22;7.40;;;3.80;;
53022;SDS011;38913;44.338;11.206;2023-05-10T07:02:48;4.30;;;3.50;;
53022;SDS011;38913;44.338;11.206;2023-05-10T07:05:13;5.43;;;3.50;;
53022;SDS011;38913;44.338;11.206;2023-05-10T07:07:39;5.88;;;3.67;;
53022;SDS011;38913;44.338;11.206;2023-05-10T07:10:04;4.80;;;3.42;;
53022;SDS011;38913;44.338;11.206;2023-05-10T07:12:30;5.68;;;3.90;;
53022;SDS011;38913;44.338;11.206;2023-05-10T07:14:55;3.90;;;3.20;;
53022;SDS011;38913;44.338;11.206;2023-05-10T07:17:20;3.97;;;3.35;;
53022;SDS011;38913;44.338;11.206;2023-05-10T07:19:45;4.03;;;3.40;;
53022;SDS011;38913;44.338;11.206;2023-05-10T07:22:11;6.60;;;3.30;;
53022;SDS011;38913;44.338;11.206;2023-05-10T07:24:36;4.20;;;3.28;;
53022;SDS011;38913;44.338;11.206;2023-05-10T07:27:02;4.40;;;2.88;;
53022;SDS011;38913;44.338;11.206;2023-05-10T07:29:27;3.88;;;3.15;;
53022;SDS011;38913;44.338;11.206;2023-05-10T07:31:53;3.88;;;3.17;;
53022;SDS011;38913;44.338;11.206;2023-05-10T07:34:18;4.27;;;2.97;;
53022;SDS011;38913;44.338;11.206;2023-05-10T07:36:43;4.23;;;3.60;;
53022;SDS011;38913;44.338;11.206;2023-05-10T07:39:09;4.25;;;3.20;;
53022;SDS011;38913;44.338;11.206;2023-05-10T07:41:34;3.40;;;2.97;;
53022;SDS011;38913;44.338;11.206;2023-05-10T07:43:59;3.72;;;3.08;;
53022;SDS011;38913;44.338;11.206;2023-05-10T07:46:25;4.07;;;3.20;;
53022;SDS011;38913;44.338;11.206;2023-05-10T07:48:50;3.50;;;3.00;;
53022;SDS011;38913;44.338;11.206;2023-05-10T07:51:15;5.27;;;3.63;;
53022;SDS011;38913;44.338;11.206;2023-05-10T07:53:40;4.03;;;3.40;;
53022;SDS011;38913;44.338;11.206;2023-05-10T07:56:28;4.35;;;3.10;;
53022;SDS011;38913;44.338;11.206;2023-05-10T07:58:56;3.47;;;2.90;;
53022;SDS011;38913;44.338;11.206;2023-05-10T08:01:22;3.22;;;2.92;;
53022;SDS011;38913;44.338;11.206;2023-05-10T08:03:47;4.13;;;2.72;;
53022;SDS011;38913;44.338;11.206;2023-05-10T08:06:13;3.58;;;2.80;;
53022;SDS011;38913;44.338;11.206;2023-05-10T08:08:39;2.97;;;2.67;;
53022;SDS011;38913;44.338;11.206;2023-05-10T08:11:05;4.30;;;2.90;;
53022;SDS011;38913;44.338;11.206;2023-05-10T08:13:30;3.95;;;2.70;;
53022;SDS011;38913;44.338;11.206;2023-05-10T08:15:56;2.88;;;2.55;;
53022;SDS011;38913;44.338;11.206;2023-05-10T08:18:22;2.40;;;2.20;;
53022;SDS011;38913;44.338;11.206;2023-05-10T08:20:47;2.85;;;1.80;;
53022;SDS011;38913;44.338;11.206;2023-05-10T08:23:12;3.77;;;2.40;;
53022;SDS011;38913;44.338;11.206;2023-05-10T08:25:38;3.53;;;2.22;;
53022;SDS011;38913;44.338;11.206;2023-05-10T08:28:03;2.22;;;1.95;;
53022;SDS011;38913;44.338;11.206;2023-05-10T08:30:29;2.57;;;1.73;;
53022;SDS011;38913;44.338;11.206;2023-05-10T08:32:54;1.70;;;1.60;;
53022;SDS011;38913;44.338;11.206;2023-05-10T08:35:19;1.60;;;1.50;;
53022;SDS011;38913;44.338;11.206;2023-05-10T08:37:44;1.65;;;1.42;;
53022;SDS011;38913;44.338;11.206;2023-05-10T08:40:10;1.40;;;1.30;;
53022;SDS011;38913;44.338;11.206;2023-05-10T08:42:36;1.85;;;1.60;;
53022;SDS011;38913;44.338;11.206;2023-05-10T08:45:04;1.58;;;1.20;;
53022;SDS011;38913;44.338;11.206;2023-05-10T08:47:29;1.60;;;1.50;;
53022;SDS011;38913;44.338;11.206;2023-05-10T08:49:55;2.78;;;1.50;;
53022;SDS011;38913;44.338;11.206;2023-05-10T08:52:20;2.20;;;1.30;;
53022;SDS011;38913;44.338;11.206;2023-05-10T08:54:47;1.40;;;0.82;;
53022;SDS011;38913;44.338;11.206;2023-05-10T08:57:12;1.50;;;1.30;;
53022;SDS011;38913;44.338;11.206;2023-05-10T08:59:37;1.13;;;1.00;;
53022;SDS011;38913;44.338;11.206;2023-05-10T09:02:04;1.33;;;1.13;;
53022;SDS011;38913;44.338;11.206;2023-05-10T09:04:29;1.67;;;1.08;;
53022;SDS011;38913;44.338;11.206;2023-05-10T09:06:55;1.60;;;1.30;;
53022;SDS011;38913;44.338;11.206;2023-05-10T09:09:21;2.10;;;1.40;;
53022;SDS011;38913;44.338;11.206;2023-05-10T09:11:46;1.50;;;1.40;;
53022;SDS011;38913;44.338;11.206;2023-05-10T09:14:12;1.50;;;1.20;;
53022;SDS011;38913;44.338;11.206;2023-05-10T09:16:37;1.65;;;1.35;;
53022;SDS011;38913;44.338;11.206;2023-05-10T09:19:02;1.92;;;1.38;;
53022;SDS011;38913;44.338;11.206;2023-05-10T09:21:27;2.10;;;1.60;;
53022;SDS011;38913;44.338;11.206;2023-05-10T09:23:53;2.63;;;1.40;;
53022;SDS011;38913;44.338;11.206;2023-05-10T09:26:22;2.38;;;1.50;;
53022;SDS011;38913;44.338;11.206;2023-05-10T09:28:51;1.45;;;1.13;;
53022;SDS011;38913;44.338;11.206;2023-05-10T09:31:17;2.33;;;1.40;;
53022;SDS011;38913;44.338;11.206;2023-05-10T09:33:46;4.18;;;1.70;;
53022;SDS011;38913;44.338;11.206;2023-05-10T09:36:12;2.00;;;1.60;;
53022;SDS011;38913;44.338;11.206;2023-05-10T09:38:47;3.00;;;1.70;;
53022;SDS011;38913;44.338;11.206;2023-05-10T09:41:20;3.65;;;1.70;;
53022;SDS011;38913;44.338;11.206;2023-05-10T09:43:46;2.30;;;1.90;;
53022;SDS011;38913;44.338;11.206;2023-05-10T09:46:11;2.03;;;1.55;;
53022;SDS011;38913;44.338;11.206;2023-05-10T09:48:41;1.90;;;1.67;;
53022;SDS011;38913;44.338;11.206;2023-05-10T09:51:06;1.90;;;1.60;;
53022;SDS011;38913;44.338;11.206;2023-05-10T09:53:31;2.67;;;1.70;;
53022;SDS011;38913;44.338;11.206;2023-05-10T09:55:57;1.67;;;1.50;;
53022;SDS011;38913;44.338;11.206;2023-05-10T09:58:22;2.00;;;1.70;;
53022;SDS011;38913;44.338;11.206;2023-05-10T10:00:47;2.33;;;1.80;;
53022;SDS011;38913;44.338;11.206;2023-05-10T10:03:17;2.05;;;1.73;;
53022;SDS011;38913;44.338;11.206;2023-05-10T10:05:42;2.88;;;2.20;;
53022;SDS011;38913;44.338;11.206;2023-05-10T10:08:08;2.53;;;1.50;;
53022;SDS011;38913;44.338;11.206;2023-05-10T10:10:34;2.38;;;1.60;;
53022;SDS011;38913;44.338;11.206;2023-05-10T10:13:01;1.90;;;1.60;;
53022;SDS011;38913;44.338;11.206;2023-05-10T10:15:27;2.58;;;1.80;;
53022;SDS011;38913;44.338;11.206;2023-05-10T10:17:52;2.30;;;2.10;;
53022;SDS011;38913;44.338;11.206;2023-05-10T10:20:18;1.90;;;1.60;;
53022;SDS011;38913;44.338;11.206;2023-05-10T10:22:44;1.63;;;1.50;;
53022;SDS011;38913;44.338;11.206;2023-05-10T10:25:11;1.90;;;1.60;;
53022;SDS011;38913;44.338;11.206;2023-05-10T10:32:55;1.42;;;1.23;;
53022;SDS011;38913;44.338;11.206;2023-05-10T10:35:25;2.00;;;1.30;;
53022;SDS011;38913;44.338;11.206;2023-05-10T10:37:50;1.60;;;1.50;;
53022;SDS011;38913;44.338;11.206;2023-05-10T10:40:31;2.20;;;1.52;;
53022;SDS011;38913;44.338;11.206;2023-05-10T10:42:57;2.45;;;1.55;;
53022;SDS011;38913;44.338;11.206;2023-05-10T10:45:23;1.40;;;1.17;;
53022;SDS011;38913;44.338;11.206;2023-05-10T10:47:48;3.28;;;1.55;;
53022;SDS011;38913;44.338;11.206;2023-05-10T10:50:14;2.72;;;1.42;;
53022;SDS011;38913;44.338;11.206;2023-05-10T10:52:44;1.20;;;1.10;;
53022;SDS011;38913;44.338;11.206;2023-05-10T10:55:19;2.22;;;1.02;;
53022;SDS011;38913;44.338;11.206;2023-05-10T10:57:48;2.35;;;0.50;;
53022;SDS011;38913;44.338;11.206;2023-05-10T11:02:46;1.80;;;0.57;;
53022;SDS011;38913;44.338;11.206;2023-05-10T11:05:33;1.77;;;0.57;;
53022;SDS011;38913;44.338;11.206;2023-05-10T11:10:32;1.25;;;0.40;;
53022;SDS011;38913;44.338;11.206;2023-05-10T11:13:04;1.77;;;0.50;;
53022;SDS011;38913;44.338;11.206;2023-05-10T11:17:59;0.82;;;0.30;;
53022;SDS011;38913;44.338;11.206;2023-05-10T11:20:27;1.98;;;0.50;;
53022;SDS011;38913;44.338;11.206;2023-05-10T11:22:58;1.02;;;0.30;;
53022;SDS011;38913;44.338;11.206;2023-05-10T11:25:26;0.30;;;0.20;;
53022;SDS011;38913;44.338;11.206;2023-05-10T11:27:52;1.05;;;0.30;;
53022;SDS011;38913;44.338;11.206;2023-05-10T11:30:17;1.17;;;0.40;;
53022;SDS011;38913;44.338;11.206;2023-05-10T11:32:42;0.20;;;0.20;;
53022;SDS011;38913;44.338;11.206;2023-05-10T11:35:08;1.20;;;1.02;;
53022;SDS011;38913;44.338;11.206;2023-05-10T11:37:34;1.15;;;0.30;;
53022;SDS011;38913;44.338;11.206;2023-05-10T11:39:59;0.70;;;0.30;;
53022;SDS011;38913;44.338;11.206;2023-05-10T11:42:25;0.77;;;0.30;;
53022;SDS011;38913;44.338;11.206;2023-05-10T11:44:50;0.80;;;0.30;;
53022;SDS011;38913;44.338;11.206;2023-05-10T11:47:15;0.30;;;0.30;;
53022;SDS011;38913;44.338;11.206;2023-05-10T11:49:44;0.68;;;0.30;;
53022;SDS011;38913;44.338;11.206;2023-05-10T11:52:09;0.50;;;0.28;;
53022;SDS011;38913;44.338;11.206;2023-05-10T11:54:36;1.10;;;0.40;;
53022;SDS011;38913;44.338;11.206;2023-05-10T11:57:01;0.55;;;0.40;;
53022;SDS011;38913;44.338;11.206;2023-05-10T11:59:27;0.85;;;0.35;;
53022;SDS011;38913;44.338;11.206;2023-05-10T12:01:52;0.77;;;0.40;;
53022;SDS011;38913;44.338;11.206;2023-05-10T12:04:17;0.95;;;0.43;;
53022;SDS011;38913;44.338;11.206;2023-05-10T12:06:43;0.70;;;0.45;;
53022;SDS011;38913;44.338;11.206;2023-05-10T12:09:09;0.55;;;0.30;;
53022;SDS011;38913;44.338;11.206;2023-05-10T12:11:36;0.53;;;0.40;;
53022;SDS011;38913;44.338;11.206;2023-05-10T12:14:03;0.30;;;0.30;;
53022;SDS011;38913;44.338;11.206;2023-05-10T12:16:32;1.10;;;0.50;;
53022;SDS011;38913;44.338;11.206;2023-05-10T12:18:58;0.23;;;0.23;;
53022;SDS011;38913;44.338;11.206;2023-05-10T12:21:23;0.57;;;0.40;;
53022;SDS011;38913;44.338;11.206;2023-05-10T12:23:50;1.17;;;0.30;;
53022;SDS011;38913;44.338;11.206;2023-05-10T12:26:15;0.70;;;0.40;;
53022;SDS011;38913;44.338;11.206;2023-05-10T12:28:41;0.40;;;0.30;;
53022;SDS011;38913;44.338;11.206;2023-05-10T12:31:06;0.40;;;0.30;;
53022;SDS011;38913;44.338;11.206;2023-05-10T12:33:35;0.65;;;0.40;;
53022;SDS011;38913;44.338;11.206;2023-05-10T12:36:02;0.65;;;0.22;;
53022;SDS011;38913;44.338;11.206;2023-05-10T12:38:37;0.23;;;0.23;;
53022;SDS011;38913;44.338;11.206;2023-05-10T12:41:11;0.30;;;0.30;;
53022;SDS011;38913;44.338;11.206;2023-05-10T12:43:37;0.43;;;0.20;;
53022;SDS011;38913;44.338;11.206;2023-05-10T12:46:06;0.35;;;0.30;;
53022;SDS011;38913;44.338;11.206;2023-05-10T12:48:32;0.38;;;0.30;;
53022;SDS011;38913;44.338;11.206;2023-05-10T12:50:59;0.50;;;0.30;;
53022;SDS011;38913;44.338;11.206;2023-05-10T12:53:24;0.30;;;0.30;;
53022;SDS011;38913;44.338;11.206;2023-05-10T12:55:49;0.50;;;0.30;;
53022;SDS011;38913;44.338;11.206;2023-05-10T12:58:14;1.87;;;0.30;;
53022;SDS011;38913;44.338;11.206;2023-05-10T13:00:40;0.50;;;0.30;;
53022;SDS011;38913;44.338;11.206;2023-05-10T13:03:05;1.23;;;0.40;;
53022;SDS011;38913;44.338;11.206;2023-05-10T13:05:31;0.70;;;0.50;;
53022;SDS011;38913;44.338;11.206;2023-05-10T13:07:57;0.40;;;0.35;;
53022;SDS011;38913;44.338;11.206;2023-05-10T13:10:22;0.70;;;0.40;;
53022;SDS011;38913;44.338;11.206;2023-05-10T13:12:48;0.40;;;0.30;;
53022;SDS011;38913;44.338;11.206;2023-05-10T13:15:13;0.40;;;0.40;;
53022;SDS011;38913;44.338;11.206;2023-05-10T13:17:39;0.43;;;0.30;;
53022;SDS011;38913;44.338;11.206;2023-05-10T13:20:05;2.63;;;0.50;;
53022;SDS011;38913;44.338;11.206;2023-05-10T13:22:31;5.28;;;0.52;;
53022;SDS011;38913;44.338;11.206;2023-05-10T13:24:56;1.47;;;0.37;;
53022;SDS011;38913;44.338;11.206;2023-05-10T13:27:21;0.63;;;0.40;;
53022;SDS011;38913;44.338;11.206;2023-05-10T13:29:46;0.57;;;0.53;;
53022;SDS011;38913;44.338;11.206;2023-05-10T13:32:12;1.40;;;0.30;;
53022;SDS011;38913;44.338;11.206;2023-05-10T13:34:37;0.32;;;0.22;;
53022;SDS011;38913;44.338;11.206;2023-05-10T13:37:08;0.57;;;0.30;;
53022;SDS011;38913;44.338;11.206;2023-05-10T13:39:34;1.45;;;0.30;;
53022;SDS011;38913;44.338;11.206;2023-05-10T13:42:00;0.40;;;0.20;;
53022;SDS011;38913;44.338;11.206;2023-05-10T13:44:25;0.40;;;0.20;;
53022;SDS011;38913;44.338;11.206;2023-05-10T13:46:50;0.22;;;0.20;;
53022;SDS011;38913;44.338;11.206;2023-05-10T13:49:16;0.40;;;0.30;;
53022;SDS011;38913;44.338;11.206;2023-05-10T13:51:43;0.13;;;0.13;;
53022;SDS011;38913;44.338;11.206;2023-05-10T13:54:08;0.32;;;0.20;;
53022;SDS011;38913;44.338;11.206;2023-05-10T13:56:34;0.30;;;0.30;;
53022;SDS011;38913;44.338;11.206;2023-05-10T13:58:59;0.20;;;0.20;;
53022;SDS011;38913;44.338;11.206;2023-05-10T14:01:25;0.38;;;0.28;;
53022;SDS011;38913;44.338;11.206;2023-05-10T14:03:50;0.20;;;0.20;;
53022;SDS011;38913;44.338;11.206;2023-05-10T14:06:15;0.20;;;0.20;;
53022;SDS011;38913;44.338;11.206;2023-05-10T14:08:40;0.67;;;0.20;;
53022;SDS011;38913;44.338;11.206;2023-05-10T14:11:06;0.10;;;0.10;;
53022;SDS011;38913;44.338;11.206;2023-05-10T14:13:31;0.95;;;0.20;;
53022;SDS011;38913;44.338;11.206;2023-05-10T14:15:56;1.35;;;0.30;;
53022;SDS011;38913;44.338;11.206;2023-05-10T14:18:22;0.20;;;0.20;;
53022;SDS011;38913;44.338;11.206;2023-05-10T14:20:47;0.50;;;0.30;;
53022;SDS011;38913;44.338;11.206;2023-05-10T14:23:12;0.40;;;0.30;;
53022;SDS011;38913;44.338;11.206;2023-05-10T14:25:38;0.20;;;0.20;;
53022;SDS011;38913;44.338;11.206;2023-05-10T14:28:03;0.32;;;0.30;;
53022;SDS011;38913;44.338;11.206;2023-05-10T14:30:29;0.70;;;0.50;;
53022;SDS011;38913;44.338;11.206;2023-05-10T14:32:54;2.22;;;1.13;;
53022;SDS011;38913;44.338;11.206;2023-05-10T14:35:19;1.00;;;0.60;;
53022;SDS011;38913;44.338;11.206;2023-05-10T14:37:45;1.63;;;1.20;;
53022;SDS011;38913;44.338;11.206;2023-05-10T14:40:10;1.05;;;0.60;;
53022;SDS011;38913;44.338;11.206;2023-05-10T14:42:35;1.55;;;0.70;;
53022;SDS011;38913;44.338;11.206;2023-05-10T14:45:01;1.37;;;0.90;;
53022;SDS011;38913;44.338;11.206;2023-05-10T14:47:26;1.45;;;0.60;;
53022;SDS011;38913;44.338;11.206;2023-05-10T14:49:52;0.57;;;0.50;;
53022;SDS011;38913;44.338;11.206;2023-05-10T14:52:17;0.90;;;0.80;;
53022;SDS011;38913;44.338;11.206;2023-05-10T14:54:42;0.88;;;0.80;;
53022;SDS011;38913;44.338;11.206;2023-05-10T14:57:07;1.77;;;1.43;;